Time;durP1;ratioP1;P1;durP2;ratioP2;P2;SDS_P1;SDS_P2;PMS_P1;PMS_P2;Temp;Humidity;BMP_temperature;BMP_pressure;BME280_temperature;BME280_humidity;BME280_pressure;Samples;Min_cycle;Max_cycle;Signal;HPM_P1;HPM_P2
2022/09/27 00:00:11;;;;;;;3.93;3.63;;;12.80;1.00;;;;;;6260906;28;20234;-55
2022/09/27 00:03:14;;;;;;;4.20;3.80;;;12.70;1.00;;;;;;6273674;28;20233;-54
2022/09/27 00:06:22;;;;;;;3.60;3.50;;;12.70;1.00;;;;;;6292495;28;20455;-55
2022/09/27 00:09:26;;;;;;;5.97;4.87;;;12.60;1.00;;;;;;6308932;28;20236;-54
2022/09/27 00:12:29;;;;;;;5.30;4.90;;;12.70;1.00;;;;;;6308980;28;20233;-54
2022/09/27 00:15:33;;;;;;;5.10;4.70;;;12.70;1.00;;;;;;6286502;28;20237;-55
2022/09/27 00:18:36;;;;;;;4.50;4.30;;;12.70;1.00;;;;;;6281741;28;20801;-54
2022/09/27 00:21:39;;;;;;;4.13;3.87;;;12.70;1.00;;;;;;6290828;28;20252;-55
2022/09/27 00:24:42;;;;;;;3.80;3.63;;;12.70;1.00;;;;;;6272021;28;20245;-55
2022/09/27 00:27:45;;;;;;;3.83;3.63;;;12.60;1.00;;;;;;6249858;28;20505;-55
2022/09/27 00:30:50;;;;;;;3.70;3.60;;;12.60;1.00;;;;;;6258890;28;20249;-54
2022/09/27 00:33:53;;;;;;;3.10;3.03;;;12.60;1.00;;;;;;6269119;28;20456;-54
2022/09/27 00:36:57;;;;;;;4.70;3.43;;;12.60;1.00;;;;;;6288482;28;20245;-55
2022/09/27 00:40:00;;;;;;;3.70;3.50;;;12.50;1.00;;;;;;6270902;28;20279;-54
2022/09/27 00:43:02;;;;;;;3.23;3.03;;;12.50;1.00;;;;;;6283019;28;20312;-54
2022/09/27 00:46:07;;;;;;;3.60;3.43;;;12.50;1.00;;;;;;6283485;28;20697;-55
2022/09/27 00:49:18;;;;;;;3.73;3.47;;;12.50;1.00;;;;;;6276371;28;20230;-54
2022/09/27 00:52:27;;;;;;;3.47;3.27;;;12.50;1.00;;;;;;6284348;28;20494;-55
2022/09/27 00:55:34;;;;;;;3.90;3.60;;;12.50;1.00;;;;;;6280630;28;20236;-54
2022/09/27 00:58:42;;;;;;;3.50;3.40;;;12.50;1.00;;;;;;6280055;28;20233;-54
2022/09/27 01:01:48;;;;;;;4.30;3.80;;;12.50;1.00;;;;;;6274245;28;20643;-55
2022/09/27 01:04:52;;;;;;;3.47;3.37;;;12.50;1.00;;;;;;6290983;28;20239;-53
2022/09/27 01:07:59;;;;;;;3.60;3.40;;;12.40;1.00;;;;;;6274214;28;20577;-54
2022/09/27 01:11:24;;;;;;;3.47;3.33;;;12.50;1.00;;;;;;6257324;28;20542;-53
2022/09/27 01:14:45;;;;;;;3.63;3.40;;;12.40;1.00;;;;;;6258100;28;20257;-54
2022/09/27 01:18:04;;;;;;;3.90;3.60;;;12.40;1.00;;;;;;6257522;28;20234;-55
2022/09/27 01:21:34;;;;;;;3.77;3.67;;;12.40;1.00;;;;;;6278380;28;20593;-52
2022/09/27 01:24:57;;;;;;;3.77;3.57;;;12.30;1.00;;;;;;6280995;28;20240;-55
2022/09/27 01:28:23;;;;;;;3.93;3.60;;;12.40;1.00;;;;;;6282390;28;20694;-54
2022/09/27 01:31:36;;;;;;;3.37;3.27;;;12.40;1.00;;;;;;6258757;28;20687;-54
2022/09/27 01:34:45;;;;;;;3.90;3.70;;;12.50;1.00;;;;;;6289825;28;20237;-54
2022/09/27 01:37:54;;;;;;;3.90;3.70;;;12.50;1.00;;;;;;6275057;28;20222;-54
2022/09/27 01:41:05;;;;;;;3.80;3.50;;;12.50;1.00;;;;;;6265075;28;20234;-53
2022/09/27 01:44:14;;;;;;;3.23;3.20;;;12.40;1.00;;;;;;6278843;28;20380;-53
2022/09/27 01:47:21;;;;;;;3.63;3.50;;;12.40;1.00;;;;;;6288196;28;20241;-55
2022/09/27 01:50:30;;;;;;;3.77;3.67;;;12.50;1.00;;;;;;6294487;28;20701;-55
2022/09/27 01:53:37;;;;;;;3.50;3.40;;;12.50;1.00;;;;;;6277990;28;20610;-54
2022/09/27 01:56:44;;;;;;;3.43;3.23;;;12.60;1.00;;;;;;6282613;28;20654;-54
2022/09/27 01:59:53;;;;;;;3.63;3.40;;;12.50;1.00;;;;;;6290504;28;20233;-55
2022/09/27 02:03:01;;;;;;;3.60;3.40;;;12.50;1.00;;;;;;6288038;28;20238;-54
2022/09/27 02:06:10;;;;;;;3.00;3.00;;;12.50;1.00;;;;;;6303952;28;20239;-54
2022/09/27 02:09:17;;;;;;;3.23;3.20;;;12.50;1.00;;;;;;6264934;28;20245;-55
2022/09/27 02:12:25;;;;;;;3.10;3.10;;;12.50;1.00;;;;;;6269311;28;20268;-54
2022/09/27 02:15:35;;;;;;;3.43;3.33;;;12.50;1.00;;;;;;6291182;28;20241;-55
2022/09/27 02:18:51;;;;;;;3.30;3.10;;;12.60;1.00;;;;;;6268039;28;20230;-53
2022/09/27 02:22:05;;;;;;;3.40;3.20;;;12.60;1.00;;;;;;6290158;28;20240;-54
2022/09/27 02:25:16;;;;;;;3.60;3.40;;;12.60;1.00;;;;;;6288325;28;20229;-53
2022/09/27 02:28:27;;;;;;;3.10;3.00;;;12.60;1.00;;;;;;6289693;28;20419;-54
2022/09/27 02:31:30;;;;;;;2.90;2.90;;;12.60;1.00;;;;;;6290514;28;20248;-54
2022/09/27 02:34:37;;;;;;;2.93;2.83;;;12.60;1.00;;;;;;6283852;28;20426;-55
2022/09/27 02:37:40;;;;;;;3.60;3.50;;;12.60;1.00;;;;;;6298345;28;20248;-55
2022/09/27 02:40:45;;;;;;;3.80;3.40;;;12.70;1.00;;;;;;6284984;28;20618;-55
2022/09/27 02:43:52;;;;;;;2.60;2.60;;;12.70;1.00;;;;;;6275541;28;20336;-53
2022/09/27 02:47:11;;;;;;;3.30;3.20;;;12.70;1.00;;;;;;6285176;28;20670;-55
2022/09/27 02:50:38;;;;;;;3.50;3.30;;;12.70;1.00;;;;;;6293524;28;20240;-54
2022/09/27 02:53:56;;;;;;;3.37;3.07;;;12.70;1.00;;;;;;6278534;28;20249;-56
2022/09/27 02:57:10;;;;;;;3.50;3.40;;;12.70;1.00;;;;;;6263984;28;20249;-53
2022/09/27 03:00:18;;;;;;;3.10;3.10;;;12.80;1.00;;;;;;6262749;28;20237;-54
2022/09/27 03:03:26;;;;;;;2.60;2.57;;;12.80;1.00;;;;;;6283982;28;20693;-54
2022/09/27 03:06:32;;;;;;;3.43;3.33;;;12.70;1.00;;;;;;6302242;28;20300;-55
2022/09/27 03:09:42;;;;;;;3.43;3.33;;;12.70;1.00;;;;;;6311550;28;20502;-54
2022/09/27 03:12:45;;;;;;;3.47;3.27;;;12.80;1.00;;;;;;6281663;28;20245;-54
2022/09/27 03:15:48;;;;;;;3.40;3.30;;;12.80;1.00;;;;;;6274802;28;20237;-54
2022/09/27 03:18:51;;;;;;;3.13;3.13;;;12.90;1.00;;;;;;6277908;28;20309;-52
2022/09/27 03:21:56;;;;;;;3.53;3.33;;;12.90;1.00;;;;;;6291739;28;20256;-53
2022/09/27 03:24:59;;;;;;;3.13;3.07;;;12.90;1.00;;;;;;6285160;28;20792;-55
2022/09/27 03:28:02;;;;;;;3.40;3.30;;;12.90;1.00;;;;;;6293126;28;20243;-54
2022/09/27 03:31:05;;;;;;;3.43;3.23;;;12.90;1.00;;;;;;6308787;28;20232;-55
2022/09/27 03:34:08;;;;;;;3.70;3.57;;;12.90;1.00;;;;;;6269231;28;20611;-54
2022/09/27 03:37:12;;;;;;;3.13;3.07;;;12.90;1.00;;;;;;6283950;28;20236;-54
2022/09/27 03:40:16;;;;;;;3.33;3.23;;;12.90;1.00;;;;;;6280962;28;20222;-54
2022/09/27 03:43:19;;;;;;;3.63;3.50;;;12.90;1.00;;;;;;6291442;28;20233;-55
2022/09/27 03:46:22;;;;;;;3.40;3.30;;;12.90;1.00;;;;;;6289289;28;20233;-53
2022/09/27 03:49:25;;;;;;;3.87;3.70;;;12.90;1.00;;;;;;6292707;28;20228;-56
2022/09/27 03:52:29;;;;;;;3.80;3.60;;;12.90;1.00;;;;;;6286632;28;20230;-55
2022/09/27 03:55:32;;;;;;;3.83;3.53;;;12.80;1.00;;;;;;6284183;28;20236;-55
2022/09/27 03:58:35;;;;;;;3.67;3.57;;;12.70;1.00;;;;;;6290874;28;20225;-54
2022/09/27 04:01:38;;;;;;;3.90;3.80;;;12.70;1.00;;;;;;6283600;28;20339;-55
2022/09/27 04:04:41;;;;;;;3.50;3.40;;;12.70;1.00;;;;;;6272006;28;20780;-53
2022/09/27 04:07:48;;;;;;;4.30;3.47;;;12.70;1.00;;;;;;6289560;28;20543;-54
2022/09/27 04:10:51;;;;;;;3.97;3.67;;;12.60;1.00;;;;;;6279948;28;20399;-55
2022/09/27 04:13:55;;;;;;;3.83;3.70;;;12.50;1.00;;;;;;6280711;28;20225;-54
2022/09/27 04:16:58;;;;;;;5.27;3.67;;;12.50;1.00;;;;;;6286907;28;20242;-55
2022/09/27 04:20:02;;;;;;;3.80;3.60;;;12.60;1.00;;;;;;6293124;28;20635;-55
2022/09/27 04:23:07;;;;;;;3.40;3.30;;;12.50;1.00;;;;;;6283530;28;20408;-54
2022/09/27 04:26:10;;;;;;;3.77;3.60;;;12.40;1.00;;;;;;6290996;28;20241;-55
2022/09/27 04:29:14;;;;;;;3.43;3.33;;;12.40;1.00;;;;;;6286588;28;20248;-55
2022/09/27 04:32:17;;;;;;;3.70;3.50;;;12.40;1.00;;;;;;6288503;28;20240;-55
2022/09/27 04:38:42;;;;;;;3.97;3.67;;;12.40;1.00;;;;;;6285230;28;20228;-54
2022/09/27 04:41:45;;;;;;;3.83;3.60;;;12.50;1.00;;;;;;6282002;28;20239;-54
2022/09/27 04:44:48;;;;;;;5.10;3.77;;;12.40;1.00;;;;;;6280687;28;20619;-55
2022/09/27 04:47:51;;;;;;;3.70;3.60;;;12.30;1.00;;;;;;6286341;28;20240;-54
2022/09/27 04:50:59;;;;;;;4.00;3.70;;;12.30;1.00;;;;;;6282362;28;20241;-55
2022/09/27 04:54:04;;;;;;;3.37;3.27;;;12.20;1.00;;;;;;6285658;28;20238;-55
2022/09/27 04:57:07;;;;;;;3.90;3.70;;;12.20;1.00;;;;;;6281844;28;20247;-54
2022/09/27 05:00:11;;;;;;;4.90;3.90;;;12.10;1.00;;;;;;6285885;28;20717;-54
2022/09/27 05:03:14;;;;;;;3.90;3.70;;;12.10;1.00;;;;;;6281167;28;20507;-54
2022/09/27 05:06:17;;;;;;;4.60;4.33;;;12.00;1.00;;;;;;6285789;28;20456;-54
2022/09/27 05:09:21;;;;;;;4.23;4.03;;;12.00;1.00;;;;;;6276749;28;20237;-55
2022/09/27 05:12:25;;;;;;;3.77;3.63;;;12.00;1.00;;;;;;6278891;28;20612;-51
2022/09/27 05:15:28;;;;;;;4.20;4.10;;;12.00;1.00;;;;;;6278334;28;20375;-53
2022/09/27 05:18:32;;;;;;;4.23;4.03;;;12.00;1.00;;;;;;6282851;28;20225;-53
2022/09/27 05:21:35;;;;;;;4.27;4.07;;;12.00;1.00;;;;;;6288181;28;20748;-53
2022/09/27 05:24:39;;;;;;;4.13;3.63;;;12.00;1.00;;;;;;6283845;28;20233;-53
2022/09/27 05:27:42;;;;;;;3.90;3.70;;;11.90;1.00;;;;;;6275181;28;20238;-53
2022/09/27 05:30:45;;;;;;;4.63;4.10;;;11.90;1.00;;;;;;6285490;28;20245;-54
2022/09/27 05:33:48;;;;;;;4.27;4.10;;;11.90;1.00;;;;;;6281164;28;20444;-53
2022/09/27 05:36:51;;;;;;;4.27;3.87;;;11.90;1.00;;;;;;6268927;28;20629;-54
2022/09/27 05:39:56;;;;;;;4.27;4.07;;;11.90;1.00;;;;;;6277779;28;20252;-54
2022/09/27 05:42:59;;;;;;;5.20;3.87;;;11.90;1.00;;;;;;6286773;28;20244;-53
2022/09/27 05:46:02;;;;;;;4.33;4.23;;;11.90;1.00;;;;;;6291920;28;20286;-53
2022/09/27 05:49:05;;;;;;;4.13;4.03;;;11.80;1.00;;;;;;6287797;28;20378;-54
2022/09/27 05:52:08;;;;;;;4.40;4.20;;;11.80;1.00;;;;;;6289017;28;20256;-54
2022/09/27 05:55:20;;;;;;;4.30;4.07;;;11.80;1.00;;;;;;6282571;28;20332;-54
2022/09/27 05:58:23;;;;;;;4.07;3.90;;;11.80;1.00;;;;;;6272684;28;20284;-54
2022/09/27 06:01:26;;;;;;;4.10;3.90;;;11.70;1.00;;;;;;6283901;28;20705;-54
2022/09/27 06:04:30;;;;;;;4.37;4.17;;;11.80;1.00;;;;;;6281793;28;20703;-53
2022/09/27 06:07:32;;;;;;;4.93;4.50;;;11.80;1.00;;;;;;6287925;28;20463;-53
2022/09/27 06:10:38;;;;;;;4.63;4.27;;;11.90;1.00;;;;;;6278835;28;20248;-53
2022/09/27 06:13:41;;;;;;;4.47;4.17;;;11.90;1.00;;;;;;6279324;28;20606;-54
2022/09/27 06:16:44;;;;;;;4.27;3.97;;;11.90;1.00;;;;;;6284472;28;20721;-54
2022/09/27 06:19:48;;;;;;;4.23;4.03;;;11.90;1.00;;;;;;6289870;28;20725;-54
2022/09/27 06:22:52;;;;;;;4.13;4.00;;;11.90;1.00;;;;;;6289861;28;20629;-54
2022/09/27 06:26:02;;;;;;;4.67;3.80;;;11.90;1.00;;;;;;6291664;28;20391;-54
2022/09/27 06:29:05;;;;;;;4.40;4.03;;;12.00;1.00;;;;;;6279773;28;20763;-52
2022/09/27 06:32:08;;;;;;;4.10;4.00;;;12.00;1.00;;;;;;6290022;28;20248;-53
2022/09/27 06:35:11;;;;;;;4.40;4.20;;;11.90;1.00;;;;;;6287312;28;20241;-53
2022/09/27 06:38:15;;;;;;;4.53;4.10;;;11.90;1.00;;;;;;6284922;28;20437;-53
2022/09/27 06:41:19;;;;;;;4.07;3.97;;;11.90;1.00;;;;;;6287011;28;20237;-54
2022/09/27 06:44:23;;;;;;;4.67;4.37;;;11.90;1.00;;;;;;6287900;28;20225;-52
2022/09/27 06:47:26;;;;;;;4.50;4.10;;;11.90;1.00;;;;;;6284227;28;20228;-54
2022/09/27 06:50:29;;;;;;;4.83;4.50;;;11.90;1.00;;;;;;6295168;28;20685;-53
2022/09/27 06:53:32;;;;;;;4.50;4.40;;;11.90;1.00;;;;;;6288473;28;20234;-52
2022/09/27 06:56:36;;;;;;;4.30;4.00;;;11.90;1.00;;;;;;6276838;28;20233;-54
2022/09/27 07:03:14;;;;;;;4.67;4.30;;;12.00;1.00;;;;;;6209476;28;20263;-53
2022/09/27 07:06:21;;;;;;;4.70;4.40;;;12.00;1.00;;;;;;6209482;28;20528;-54
2022/09/27 07:09:24;;;;;;;4.67;4.33;;;11.90;1.00;;;;;;6282306;28;20291;-53
2022/09/27 07:12:28;;;;;;;4.53;4.30;;;11.90;1.00;;;;;;6293217;28;20576;-60
2022/09/27 07:15:32;;;;;;;5.43;4.23;;;12.00;1.00;;;;;;6280560;28;20233;-52
2022/09/27 07:18:35;;;;;;;4.70;4.50;;;12.00;1.00;;;;;;6304750;28;20235;-59
2022/09/27 07:21:38;;;;;;;5.03;4.80;;;12.00;1.00;;;;;;6291630;28;20749;-52
2022/09/27 07:24:40;;;;;;;5.17;4.93;;;12.10;1.00;;;;;;6290834;28;20234;-53
2022/09/27 07:27:45;;;;;;;4.80;4.50;;;12.20;1.00;;;;;;6282759;28;20706;-53
2022/09/27 07:30:48;;;;;;;4.53;4.40;;;12.20;1.00;;;;;;6293461;28;20240;-54
2022/09/27 07:33:52;;;;;;;4.53;4.33;;;12.20;1.00;;;;;;6271890;28;20634;-54
2022/09/27 07:36:59;;;;;;;4.87;4.50;;;12.20;1.00;;;;;;6284490;28;20244;-54
2022/09/27 07:40:04;;;;;;;4.70;4.50;;;12.20;1.00;;;;;;6258037;28;20230;-54
2022/09/27 07:43:09;;;;;;;5.27;4.93;;;12.10;1.00;;;;;;6279266;28;20237;-54
2022/09/27 07:46:13;;;;;;;5.00;4.80;;;12.10;1.00;;;;;;6285198;28;20468;-53
2022/09/27 07:49:16;;;;;;;4.73;4.60;;;12.10;1.00;;;;;;6287255;28;20263;-52
2022/09/27 07:52:19;;;;;;;5.20;5.00;;;12.10;1.00;;;;;;6282276;28;20236;-53
2022/09/27 07:55:23;;;;;;;5.13;4.83;;;12.10;1.00;;;;;;6277683;28;20408;-53
2022/09/27 07:58:29;;;;;;;4.57;4.17;;;12.10;1.00;;;;;;6289684;28;20244;-54
2022/09/27 08:01:33;;;;;;;4.47;4.23;;;12.10;1.00;;;;;;6280088;28;20240;-53
2022/09/27 08:04:36;;;;;;;4.80;4.60;;;12.10;1.00;;;;;;6282428;28;20280;-55
2022/09/27 08:07:40;;;;;;;4.67;4.27;;;12.10;1.00;;;;;;6274524;28;20604;-54
2022/09/27 08:10:46;;;;;;;5.67;5.47;;;12.20;1.00;;;;;;6284947;28;20624;-54
2022/09/27 08:13:51;;;;;;;4.57;4.47;;;12.20;1.00;;;;;;6288879;28;20237;-53
2022/09/27 08:16:54;;;;;;;4.50;4.20;;;12.20;1.00;;;;;;6278271;28;20540;-54
2022/09/27 08:19:57;;;;;;;4.27;3.97;;;12.30;1.00;;;;;;6277929;28;20237;-54
2022/09/27 08:23:03;;;;;;;4.40;4.20;;;12.20;1.00;;;;;;6288142;28;20614;-54
2022/09/27 08:26:06;;;;;;;4.17;4.07;;;12.30;1.00;;;;;;6288494;28;20233;-53
2022/09/27 08:29:11;;;;;;;3.87;3.77;;;12.30;1.00;;;;;;6284508;28;20229;-54
2022/09/27 08:32:16;;;;;;;4.00;3.90;;;12.20;1.00;;;;;;6286637;28;20436;-54
2022/09/27 08:35:25;;;;;;;4.13;4.03;;;12.20;1.00;;;;;;6273170;28;20424;-54
2022/09/27 08:38:28;;;;;;;4.23;3.93;;;12.20;1.00;;;;;;6286452;28;20229;-56
2022/09/27 08:41:37;;;;;;;4.53;4.37;;;12.20;1.00;;;;;;6281660;28;20232;-55
2022/09/27 08:44:50;;;;;;;3.93;3.83;;;12.20;1.00;;;;;;6278824;28;20241;-53
2022/09/27 08:47:56;;;;;;;5.53;5.13;;;12.10;1.00;;;;;;6285743;28;20229;-53
2022/09/27 08:51:02;;;;;;;4.63;4.43;;;12.10;1.00;;;;;;6271538;28;20281;-53
2022/09/27 08:54:07;;;;;;;4.17;4.03;;;12.20;1.00;;;;;;6288411;28;20776;-54
2022/09/27 08:57:12;;;;;;;4.77;4.47;;;12.30;1.00;;;;;;6287859;28;20329;-53
2022/09/27 09:00:17;;;;;;;4.43;4.27;;;12.40;1.00;;;;;;6267233;28;20348;-55
2022/09/27 09:03:24;;;;;;;4.73;4.47;;;12.30;1.00;;;;;;6275441;28;20693;-53
2022/09/27 09:06:28;;;;;;;4.13;4.03;;;12.40;1.00;;;;;;6281930;28;20229;-53
2022/09/27 09:09:40;;;;;;;4.60;4.47;;;12.40;1.00;;;;;;6287969;28;20236;-54
2022/09/27 09:12:52;;;;;;;4.27;4.17;;;12.40;1.00;;;;;;6292071;28;20240;-54
2022/09/27 09:16:07;;;;;;;4.17;4.07;;;12.40;1.00;;;;;;6289612;28;20242;-55
2022/09/27 09:19:47;;;;;;;4.47;4.30;;;12.40;1.00;;;;;;6284230;28;20288;-54
2022/09/27 09:23:09;;;;;;;4.80;4.60;;;12.40;1.00;;;;;;6284238;28;20518;-55
2022/09/27 09:26:20;;;;;;;4.03;3.93;;;12.40;1.00;;;;;;6276614;28;20599;-54
2022/09/27 09:29:44;;;;;;;4.80;4.60;;;12.40;1.00;;;;;;6278769;28;20241;-53
2022/09/27 09:33:14;;;;;;;5.33;4.83;;;12.40;1.00;;;;;;6280951;28;20259;-54
2022/09/27 09:36:29;;;;;;;4.53;4.33;;;12.50;1.00;;;;;;6285626;28;20260;-52
2022/09/27 09:39:38;;;;;;;4.70;4.50;;;12.50;1.00;;;;;;6267794;28;20241;-52
2022/09/27 09:42:47;;;;;;;5.00;4.83;;;12.60;1.00;;;;;;6285940;28;20780;-55
2022/09/27 09:45:54;;;;;;;5.80;5.60;;;12.60;1.00;;;;;;6288286;28;20237;-54
2022/09/27 09:49:03;;;;;;;4.90;4.70;;;12.60;1.00;;;;;;6275371;28;20421;-54
2022/09/27 09:52:12;;;;;;;5.40;5.07;;;12.60;1.00;;;;;;6285000;28;20234;-54
2022/09/27 09:55:19;;;;;;;5.70;5.40;;;12.60;1.00;;;;;;6283871;28;20745;-56
2022/09/27 09:58:26;;;;;;;5.00;4.90;;;12.60;1.00;;;;;;6285588;28;20404;-54
2022/09/27 10:01:34;;;;;;;5.00;4.80;;;12.80;1.00;;;;;;6279490;28;20249;-53
2022/09/27 10:04:38;;;;;;;5.67;5.10;;;12.80;1.00;;;;;;6289827;28;20311;-54
2022/09/27 10:07:42;;;;;;;7.43;6.93;;;12.70;1.00;;;;;;6286926;28;20631;-54
2022/09/27 10:10:45;;;;;;;5.40;5.23;;;12.70;1.00;;;;;;6289931;28;20236;-54
2022/09/27 10:13:48;;;;;;;5.40;5.20;;;12.70;1.00;;;;;;6284604;28;20229;-53
2022/09/27 10:16:55;;;;;;;5.03;4.83;;;12.70;1.00;;;;;;6291424;28;20244;-55
2022/09/27 10:20:05;;;;;;;5.70;5.50;;;12.70;1.00;;;;;;6287385;28;20233;-54
2022/09/27 10:23:14;;;;;;;5.63;5.40;;;12.80;1.00;;;;;;6289751;28;20760;-53
2022/09/27 10:26:20;;;;;;;5.30;4.93;;;12.90;1.00;;;;;;6282721;28;20524;-54
2022/09/27 10:29:28;;;;;;;5.20;5.10;;;13.00;1.00;;;;;;6278659;28;20312;-52
2022/09/27 10:32:39;;;;;;;4.53;4.43;;;13.10;1.00;;;;;;6284379;28;20694;-55
2022/09/27 10:35:45;;;;;;;5.30;4.90;;;13.20;1.00;;;;;;6288680;28;20237;-53
2022/09/27 10:38:53;;;;;;;5.33;4.93;;;13.20;1.00;;;;;;6289845;28;20976;-54
2022/09/27 10:41:56;;;;;;;5.40;5.17;;;13.30;1.00;;;;;;6285656;28;20722;-53
2022/09/27 10:45:19;;;;;;;6.33;5.93;;;13.20;1.00;;;;;;6290628;28;20399;-54
2022/09/27 10:48:22;;;;;;;5.57;5.23;;;13.40;1.00;;;;;;6290035;28;20236;-53
2022/09/27 10:51:31;;;;;;;4.90;4.70;;;13.50;1.00;;;;;;6290708;28;20607;-54
2022/09/27 10:54:37;;;;;;;4.97;4.77;;;13.80;1.00;;;;;;6285328;28;20226;-54
2022/09/27 10:57:40;;;;;;;4.50;4.30;;;13.90;1.00;;;;;;6284463;28;20232;-54
2022/09/27 11:00:55;;;;;;;4.53;4.23;;;14.10;1.00;;;;;;6285623;28;20786;-53
2022/09/27 11:04:00;;;;;;;4.30;4.10;;;14.60;1.00;;;;;;6274369;28;20392;-54
2022/09/27 11:07:13;;;;;;;4.00;3.77;;;14.90;1.00;;;;;;6265724;28;20229;-54
2022/09/27 11:10:27;;;;;;;3.60;3.50;;;15.00;1.00;;;;;;6264592;28;20766;-55
2022/09/27 11:13:31;;;;;;;3.73;3.57;;;14.90;1.00;;;;;;6283244;28;20233;-54
2022/09/27 11:16:47;;;;;;;3.97;3.60;;;14.90;1.00;;;;;;6264199;28;20230;-54
2022/09/27 11:20:07;;;;;;;3.70;3.60;;;14.60;1.00;;;;;;6293746;28;20748;-54
2022/09/27 11:23:35;;;;;;;4.00;3.90;;;14.40;1.00;;;;;;6283048;28;20253;-59
2022/09/27 11:26:50;;;;;;;4.73;4.43;;;14.10;1.00;;;;;;6294959;28;20229;-58
2022/09/27 11:30:03;;;;;;;4.67;4.37;;;14.00;1.00;;;;;;6286731;28;20287;-55
2022/09/27 11:33:30;;;;;;;4.50;4.30;;;13.90;1.00;;;;;;6293454;28;20248;-54
2022/09/27 11:36:47;;;;;;;4.90;4.60;;;13.80;1.00;;;;;;6285278;28;20256;-54
2022/09/27 11:40:20;;;;;;;4.93;4.53;;;13.70;1.00;;;;;;6287286;28;20229;-55
2022/09/27 11:43:35;;;;;;;5.00;4.63;;;13.70;1.00;;;;;;6286458;28;20236;-54
2022/09/27 11:46:40;;;;;;;4.70;4.27;;;13.60;1.00;;;;;;6285361;28;20233;-55
2022/09/27 11:50:10;;;;;;;4.70;4.47;;;13.60;1.00;;;;;;6290807;28;23023;-53
2022/09/27 11:53:29;;;;;;;4.00;3.70;;;13.60;1.00;;;;;;6286143;28;20328;-54
2022/09/27 11:56:40;;;;;;;3.43;2.57;;;13.30;1.00;;;;;;6276938;28;20234;-54
2022/09/27 12:00:09;;;;;;;2.57;2.37;;;13.00;1.00;;;;;;6289401;28;20242;-54
2022/09/27 12:03:52;;;;;;;2.90;2.80;;;12.60;1.00;;;;;;6284211;28;20239;-53
2022/09/27 12:07:00;;;;;;;2.40;2.20;;;12.30;1.00;;;;;;6285575;28;20244;-53
2022/09/27 12:10:09;;;;;;;2.50;2.50;;;12.10;1.00;;;;;;6267835;28;20233;-53
2022/09/27 12:13:16;;;;;;;2.30;2.30;;;11.90;1.00;;;;;;6277404;28;20260;-54
2022/09/27 12:16:22;;;;;;;2.40;2.23;;;11.70;1.00;;;;;;6299647;28;20244;-52
2022/09/27 12:19:29;;;;;;;2.50;2.50;;;11.70;1.00;;;;;;6289815;28;20369;-54
2022/09/27 12:22:37;;;;;;;2.57;2.47;;;11.60;1.00;;;;;;6287346;28;20268;-52
2022/09/27 12:26:06;;;;;;;2.60;2.60;;;11.50;1.00;;;;;;6284490;28;20248;-54
2022/09/27 12:29:17;;;;;;;3.17;2.90;;;11.50;1.00;;;;;;6281617;28;20234;-55
2022/09/27 12:32:24;;;;;;;2.90;2.70;;;11.60;1.00;;;;;;6285930;28;20237;-54
2022/09/27 12:35:30;;;;;;;2.90;2.70;;;11.60;1.00;;;;;;6280076;28;20234;-54
2022/09/27 12:38:40;;;;;;;3.30;3.10;;;11.70;1.00;;;;;;6280644;28;20582;-53
2022/09/27 12:41:51;;;;;;;3.93;3.73;;;11.90;1.00;;;;;;6296194;28;20256;-55
2022/09/27 12:44:56;;;;;;;3.33;3.27;;;12.20;1.00;;;;;;6289446;28;20633;-55
2022/09/27 12:48:06;;;;;;;3.70;3.47;;;12.40;1.00;;;;;;6290537;28;20245;-54
2022/09/27 12:51:11;;;;;;;3.50;3.40;;;12.40;1.00;;;;;;6292663;28;20387;-54
2022/09/27 12:54:43;;;;;;;3.50;3.30;;;12.60;1.00;;;;;;6287206;28;20229;-54
2022/09/27 12:57:55;;;;;;;3.63;3.43;;;12.90;1.00;;;;;;6282462;28;20241;-54
2022/09/27 13:01:10;;;;;;;3.70;3.53;;;13.00;1.00;;;;;;6292050;28;20237;-54
2022/09/27 13:04:37;;;;;;;3.37;3.27;;;13.00;1.00;;;;;;6292209;28;20232;-53
2022/09/27 13:07:54;;;;;;;5.17;3.73;;;13.00;1.00;;;;;;6281826;28;20403;-52
2022/09/27 13:11:09;;;;;;;3.30;3.10;;;13.10;1.00;;;;;;6283669;28;20376;-54
2022/09/27 13:14:18;;;;;;;3.00;2.90;;;13.30;1.00;;;;;;6285979;28;23025;-53
2022/09/27 13:17:50;;;;;;;2.83;2.73;;;13.60;1.00;;;;;;6282681;28;20749;-53
2022/09/27 13:20:54;;;;;;;2.60;2.60;;;13.70;1.00;;;;;;6279735;28;20229;-54
2022/09/27 13:24:03;;;;;;;3.10;3.00;;;13.70;1.00;;;;;;6283086;28;20232;-55
2022/09/27 13:27:41;;;;;;;3.17;3.07;;;13.50;1.00;;;;;;6276404;28;20682;-55
2022/09/27 13:30:44;;;;;;;3.00;2.97;;;13.30;1.00;;;;;;6284133;28;20222;-53
2022/09/27 13:33:50;;;;;;;2.63;2.63;;;13.20;1.00;;;;;;6289144;28;20244;-54
2022/09/27 13:36:53;;;;;;;3.23;3.13;;;13.20;1.00;;;;;;6288682;28;20283;-53
2022/09/27 13:40:13;;;;;;;3.33;3.23;;;13.10;1.00;;;;;;6283936;28;20238;-53
2022/09/27 13:43:40;;;;;;;4.80;4.60;;;13.10;1.00;;;;;;6276363;28;20248;-55
2022/09/27 13:46:50;;;;;;;3.47;3.37;;;13.10;1.00;;;;;;6282690;28;20366;-54
2022/09/27 13:50:02;;;;;;;3.50;3.40;;;13.00;1.00;;;;;;6291720;28;20236;-55
2022/09/27 13:53:17;;;;;;;3.33;3.23;;;12.90;1.00;;;;;;6281380;28;20237;-53
2022/09/27 13:56:49;;;;;;;3.30;3.20;;;12.80;1.00;;;;;;6279004;28;20221;-54
2022/09/27 13:59:56;;;;;;;3.43;3.13;;;12.80;1.00;;;;;;6283471;28;20233;-55
2022/09/27 14:03:09;;;;;;;3.50;3.40;;;12.80;1.00;;;;;;6283544;28;20226;-53
2022/09/27 14:06:17;;;;;;;3.67;3.53;;;12.90;1.00;;;;;;6289971;28;20239;-55
2022/09/27 14:09:25;;;;;;;3.50;3.40;;;13.00;1.00;;;;;;6280848;28;20230;-54
2022/09/27 14:12:32;;;;;;;3.47;3.37;;;13.00;1.00;;;;;;6280695;28;20237;-54
2022/09/27 14:15:37;;;;;;;3.63;3.33;;;13.00;1.00;;;;;;6283579;28;20233;-53
2022/09/27 14:18:49;;;;;;;3.37;3.17;;;13.00;1.00;;;;;;6283869;28;20759;-54
2022/09/27 14:22:12;;;;;;;3.70;3.60;;;12.90;1.00;;;;;;6290540;28;20241;-55
2022/09/27 14:25:19;;;;;;;3.30;3.30;;;12.90;1.00;;;;;;6282352;28;20233;-54
2022/09/27 14:28:23;;;;;;;3.63;3.43;;;12.80;1.00;;;;;;6277617;28;20225;-53
2022/09/27 14:31:28;;;;;;;3.57;3.37;;;12.80;1.00;;;;;;6287458;28;20234;-54
2022/09/27 14:34:31;;;;;;;3.33;3.23;;;12.90;1.00;;;;;;6279376;28;20431;-54
2022/09/27 14:37:35;;;;;;;2.80;2.80;;;13.10;1.00;;;;;;6284163;28;20381;-53
2022/09/27 14:40:42;;;;;;;2.90;2.80;;;13.20;1.00;;;;;;6290802;28;20801;-53
2022/09/27 14:43:49;;;;;;;3.23;3.13;;;13.20;1.00;;;;;;6295112;28;20617;-53
2022/09/27 14:47:09;;;;;;;3.37;3.27;;;13.20;1.00;;;;;;6292089;28;20601;-54
2022/09/27 14:50:19;;;;;;;3.00;2.90;;;13.20;1.00;;;;;;6283691;28;20736;-55
2022/09/27 14:53:23;;;;;;;3.37;3.20;;;13.10;1.00;;;;;;6282526;28;20615;-53
2022/09/27 14:56:30;;;;;;;3.17;3.17;;;13.00;1.00;;;;;;6282464;28;20233;-54
2022/09/27 14:59:36;;;;;;;2.90;2.80;;;12.90;1.00;;;;;;6282884;28;20670;-54
2022/09/27 15:02:42;;;;;;;3.40;3.30;;;13.00;1.00;;;;;;6286067;28;20229;-54
2022/09/27 15:05:45;;;;;;;3.20;3.10;;;12.90;1.00;;;;;;6290429;28;20230;-53
2022/09/27 15:08:49;;;;;;;3.77;3.67;;;12.80;1.00;;;;;;6283889;28;20368;-53
2022/09/27 15:11:55;;;;;;;4.23;3.53;;;12.70;1.00;;;;;;6290793;28;20314;-54
2022/09/27 15:14:59;;;;;;;3.70;3.40;;;12.60;1.00;;;;;;6298421;28;20590;-54
2022/09/27 15:18:04;;;;;;;4.13;3.93;;;12.50;1.00;;;;;;6284669;28;20233;-53
2022/09/27 15:21:08;;;;;;;4.10;3.80;;;12.40;1.00;;;;;;6285436;28;20242;-53
2022/09/27 15:24:39;;;;;;;4.60;3.83;;;12.40;1.00;;;;;;6287211;28;20312;-53
2022/09/27 15:27:51;;;;;;;4.00;3.90;;;12.40;1.00;;;;;;6285115;28;20229;-55
2022/09/27 15:30:55;;;;;;;3.43;3.43;;;12.50;1.00;;;;;;6282125;28;20248;-53
2022/09/27 15:34:00;;;;;;;3.93;3.77;;;12.40;1.00;;;;;;6277121;28;20523;-53
2022/09/27 15:37:05;;;;;;;4.83;4.63;;;12.50;1.00;;;;;;6286102;28;20611;-58
2022/09/27 15:40:48;;;;;;;5.13;4.83;;;12.40;1.00;;;;;;6282480;28;20320;-53
2022/09/27 15:43:52;;;;;;;5.80;5.17;;;12.50;1.00;;;;;;6295503;28;20338;-54
2022/09/27 15:46:55;;;;;;;5.60;5.33;;;12.40;1.00;;;;;;6292845;28;20240;-53
2022/09/27 15:50:20;;;;;;;5.00;4.77;;;12.40;1.00;;;;;;6286424;28;20241;-53
2022/09/27 15:53:42;;;;;;;5.13;4.70;;;12.30;1.00;;;;;;6293711;28;20601;-54
2022/09/27 15:56:46;;;;;;;5.00;4.80;;;12.30;1.00;;;;;;6287749;28;20340;-55
2022/09/27 15:59:49;;;;;;;4.60;4.50;;;12.20;1.00;;;;;;6290524;28;20237;-54
2022/09/27 16:02:52;;;;;;;4.80;4.27;;;12.20;1.00;;;;;;6285194;28;20698;-54
2022/09/27 16:05:56;;;;;;;4.00;3.90;;;12.10;1.00;;;;;;6290275;28;20239;-54
2022/09/27 16:09:01;;;;;;;3.57;3.47;;;12.10;1.00;;;;;;6276487;28;20233;-54
2022/09/27 16:12:04;;;;;;;2.53;2.53;;;11.90;1.00;;;;;;6273672;28;20398;-53
2022/09/27 16:15:08;;;;;;;2.50;2.50;;;11.80;1.00;;;;;;6271099;28;20233;-53
2022/09/27 16:18:11;;;;;;;2.90;2.80;;;11.60;1.00;;;;;;6282773;28;20241;-53
2022/09/27 16:21:14;;;;;;;2.60;2.60;;;11.60;1.00;;;;;;6293469;28;20232;-55
2022/09/27 16:24:18;;;;;;;2.73;2.73;;;11.50;1.00;;;;;;6275772;28;20229;-55
2022/09/27 16:27:23;;;;;;;3.10;2.90;;;11.50;1.00;;;;;;6279130;28;20283;-54
2022/09/27 16:30:27;;;;;;;2.60;2.60;;;11.40;1.00;;;;;;6279712;28;20601;-53
2022/09/27 16:33:31;;;;;;;2.80;2.80;;;11.40;1.00;;;;;;6276200;28;20372;-53
2022/09/27 16:36:34;;;;;;;2.63;2.53;;;11.40;1.00;;;;;;6282359;28;20493;-53
2022/09/27 16:39:39;;;;;;;3.17;3.03;;;11.30;1.00;;;;;;6284499;28;20245;-54